AirNav   Bose Proflight Series 2 Wireless Aviation Headset
 
 535 users online  

MO92 SSM Health Depaul Hospital-St Louis Heliport
Bridgeton, Missouri, USA

GOING TO BRIDGETON?


FAA INFORMATION EFFECTIVE 07 NOVEMBER 2019

Location

FAA Identifier: MO92
Lat/Long: 38-45-07.8100N 090-25-56.6400W
38-45.130167N 090-25.944000W
38.7521694,-90.4324000
(estimated)
Elevation: 543 ft. / 166 m (estimated)
Variation: 02E (1985)
Time zone: UTC -6 (UTC -5 during Daylight Saving Time)
Zip code: 63044

Heliport Operations

Heliport use: Private use, MEDICAL.
Activation date: 07/1977
Control tower: no
ARTCC: KANSAS CITY CENTER
FSS: SAINT LOUIS FLIGHT SERVICE STATION
Attendance: UNATNDD
Wind indicator: yes
Segmented circle: no
Lights: FOR HELIPAD LGTS CALL 314-344-7055.

Heliport Communications

WX ASOS at STL (2.9 nm E): PHONE 314-890-4790
WX ASOS at SET (11 nm N): 118.075 (636-250-4590)
WX ASOS at SUS (12 nm SW): 134.8 (314-890-7255)
WX ASOS at CPS (17 nm SE): PHONE 618-332-0001
WX AWOS-3 at ALN (20 nm NE): 128.0 (618-259-7231)

Nearby radio navigation aids

VOR radial/distance  VOR name  Freq  Var
STLr159/6.9ST LOUIS VORTAC117.4001E
TOYr268/24.1TROY VORTAC116.0004E
FTZr077/25.5FORISTELL VORTAC110.8005E

 
NDB name  Hdg/Dist  Freq  Var  ID
OBLIO147/3.533801WLM .-.. --
EAVES051/7.022701WFZ ..-. --..
ZUMAY254/7.540401WST ... -
CIVIC MEMORIAL245/19.526301WCVM -.-. ...- --

Heliport Services

Runway Information

Helipad H1

Dimensions: 60 x 60 ft. / 18 x 18 m
FATO 90 FT X 90 FT.
Surface: asphalt
Runway edge lights: PERI
YELLOW LGTS AT FATO EDGE AND WHITE LGTS AT TLOF EDGE.
Latitude: 38-45.130167N
Longitude: 090-25.944000W
Elevation: 543.0 ft.
Traffic pattern: leftleft
Obstructions: 50 ft. pole

Heliport Ownership and Management from official FAA records

Ownership: Privately-owned
Owner: SSM HEALTH CARE ST. LOUIS
12303 DEPAUL DRIVE
ST. LOUIS, MO 63044
Phone (314) 989-6134
Manager: LESLIE THORNBURG
1015 CORPORATE SQ DR., SUITE 110
ST. LOUIS, MO 63132
Phone (314) 989-6134
ADDITIONAL CONTACT: LESLIE THORNBURG 314-989-6134 LESLIE.THORNBURG@SSMHEALTH.COM

Additional Remarks

FOR CD CTC ST LOUIS APCH AT 314-890-1018.

Instrument Procedures

There are no published instrument procedures at MO92.

Some nearby airports with instrument procedures:

KSTL - St Louis Lambert International Airport (3 nm E)
1H0 - Creve Coeur Airport (4 nm SW)
KSET - St Charles County Smartt Airport (11 nm N)
KSUS - Spirit of St Louis Airport (12 nm SW)
KCPS - St Louis Downtown Airport (17 nm SE)
KALN - St Louis Regional Airport (20 nm NE)
 
Loc | Ops | Rwys | IFR | FBO | Links
Com | Nav | Svcs | Stats | Notes

Kansas City Aviation Department
 
Area around MO92 (SSM Health Depaul Hospital-St Louis Heliport)
 
Road maps at: MapQuest Bing Google
 
Aerial photo
No photo
 
Sectional chart

 
Airport distance calculator
Flying to SSM Health Depaul Hospital-St Louis Heliport? Find the distance to fly.

From to MO92

Sunrise and sunset
Times for 19-Nov-2019
 Local
(UTC-6)
 Zulu
(UTC)
Morning civil twilight06:2112:21
Sunrise06:5012:50
Sunset16:4522:45
Evening civil twilight17:1323:13

Current date and time
Zulu (UTC)  20-Nov-2019 05:49:15
Local (UTC-6)  19-Nov-2019 23:49:15
 
METAR
KSTL 
3nm E 
200451Z 11006KT 10SM SCT250 04/02 A3003 RMK AO2 SLP172 T00390017
KSET 
11nm N 
200454Z AUTO A3003 RMK AO2 SLPNO PWINO FZRANO $
KSUS 
12nm SW 
200454Z 00000KT 10SM CLR 01/M01 A3002 RMK AO2 SLP168 T00061006
KCPS 
17nm SE 
200453Z AUTO 00000KT 9SM CLR 01/00 A3003 RMK AO2 SLP171 T00110000
TAF
KSTL 
3nm E 
200253Z 2003/2106 00000KT P6SM FEW250 FM201300 13006KT P6SM SCT250 FM202000 15010G17KT P6SM SCT250
KSUS 
12nm SW 
191743Z 1918/2018 29011G19KT P6SM FEW025 FM192300 VRB04KT P6SM SKC FM201000 VRB03KT 6SM BR SCT250 FM201300 VRB04KT P6SM SCT250
KCPS 
17nm SE 
191743Z 1918/2018 32012G23KT P6SM SCT025 FM192300 VRB04KT P6SM SKC FM200900 00000KT 4SM BR FEW250 FM201300 13005KT P6SM SCT250
NOTAMs
Click for the latest NOTAMs
NOTAMs are issued by the DoD/FAA and will open in a separate window not controlled by AirNav.

 

 
 

Would you like to see your business listed on this page?

 If your business provides an interesting product or service to pilots, flight crews, aircraft, or users of the SSM Health Depaul Hospital-St Louis Heliport, you should consider listing it here.  To start the listing process, click on the button below
 
Add a business
 

Other Pages about SSM Health Depaul Hospital-St Louis Heliport

Update a link
 
Copyright © AirNav, LLC. All rights reserved. Privacy Policy  Contact